Jacques Jacob — ZDKG7 — position and weather

sailwx.info

Track history (hours):
 
Tides and Currents Weather Stations Pressure Air Temp Water Temp Dewpoint Dewpoint Depression Visibility Wind Speed Wind Dir Waves Ship Positions

Jacques Jacob

Last reported at 2014-Sep-22 05:14 UTC. Time now 2014-Sep-22 10:20 UTC.
Position N 37°41' E 003°01'.

Length 228 m; draft 11.8 m.

Type: Tanker. MMSI: 236612000.

Date/timePositionNaut miles runAvg speedWind from/ knotsBaromVisibWave heightAir tempDewpointWater temp
2014-Sep-22 05:14N 37°41' E 003°01'4013.1
2014-Sep-22 02:10N 37°44' E 003°52'5812.5
2014-Sep-21 21:32N 37°46' E 005°05'13312.8
2014-Sep-21 11:09N 37°52' E 007°53'912.4
2014-Sep-21 10:24N 37°53' E 008°05'1012.0
2014-Sep-21 09:33N 37°53' E 008°18'1212.3
2014-Sep-21 08:32N 37°54' E 008°34'1212.1
2014-Sep-21 07:33N 37°55' E 008°49'1211.9
2014-Sep-21 06:33N 37°54' E 009°04'1212.3
2014-Sep-21 05:33N 37°50' E 009°19'1212.2
2014-Sep-21 04:34N 37°46' E 009°33'1212.1
2014-Sep-21 03:34N 37°43' E 009°48'1211.8
2014-Sep-21 02:32N 37°40' E 010°02'1111.4
2014-Sep-21 01:33N 37°39' E 010°17'1211.6
2014-Sep-21 00:33N 37°36' E 010°31'1211.6
2014-Sep-20 23:32N 37°33' E 010°45'1111.5
2014-Sep-20 22:33N 37°30' E 010°59'1211.7
2014-Sep-20 21:34N 37°26' E 011°13'5312.3
2014-Sep-20 17:18N 37°02' E 012°11'912.4
2014-Sep-20 16:34N 36°58' E 012°22'1512.2
2014-Sep-20 15:21N 36°53' E 012°39'1012.6
2014-Sep-20 14:34N 36°50' E 012°51'1312.7
2014-Sep-20 13:33N 36°47' E 013°06'1212.0
2014-Sep-20 12:33N 36°43' E 013°21'1312.2
2014-Sep-20 11:32N 36°37' E 013°34'1211.9
2014-Sep-20 10:31N 36°33' E 013°48'1211.9
2014-Sep-20 09:33N 36°29' E 014°02'1212.0
2014-Sep-20 08:32N 36°24' E 014°16'1111.7
2014-Sep-20 07:33N 36°21' E 014°29'6412.1
2014-Sep-20 02:17N 36°06' E 015°47'912.4
2014-Sep-20 01:34N 36°04' E 015°58'  
2014-Sep-17 08:33N 34°21' E 032°20'1212.2
2014-Sep-17 07:34N 34°20' E 032°34'1212.0
2014-Sep-17 06:34N 34°21' E 032°49'1212.4
2014-Sep-17 05:33N 34°26' E 033°03'1211.6
2014-Sep-17 04:33N 34°29' E 033°16'2 1.8
2014-Sep-17 03:33N 34°30' E 033°18'10 8.1
2014-Sep-17 02:18N 34°32' E 033°30'11 3.6
2014-Sep-16 23:16N 34°33' E 033°43'14 0.9
2014-Sep-16 08:10N 34°30' E 033°26'2 3.7
2014-Sep-16 07:34N 34°28' E 033°25'5 5.0
2014-Sep-16 06:34N 34°24' E 033°22'4 0.5
2014-Sep-15 22:33N 34°23' E 033°18'1111.1
2014-Sep-15 21:33N 34°28' E 033°29'5 0.7
2014-Sep-15 13:31N 34°33' E 033°32'3 1.3
2014-Sep-15 11:13N 34°35' E 033°35'3 1.7
2014-Sep-15 09:30N 34°36' E 033°38'1 1.0
2014-Sep-15 08:33N 34°36' E 033°37'1 1.0
2014-Sep-15 07:33N 34°35' E 033°36'1 1.0
2014-Sep-15 06:22N 34°34' E 033°35'5 0.8
2014-Sep-15 00:33N 34°32' E 033°30'4 3.8
2014-Sep-14 23:32N 34°36' E 033°31'4 1.0
2014-Sep-14 19:32N 34°33' E 033°27'5 5.1
2014-Sep-14 18:33N 34°28' E 033°26'5 4.8
2014-Sep-14 17:32N 34°23' E 033°25'3 2.1
2014-Sep-14 16:17N 34°21' E 033°23'6 8.6
2014-Sep-14 15:33N 34°26' E 033°19'4 4.0
2014-Sep-14 14:33N 34°29' E 033°16'1211.7
2014-Sep-14 13:33N 34°25' E 033°02'1414.4
2014-Sep-14 12:33N 34°20' E 032°46'  
Track history (hours):
 
Tides and Currents Weather Stations Pressure Air Temp Water Temp Dewpoint Dewpoint Depression Visibility Wind Speed Wind Dir Waves Ship Positions

Jacques Jacob

Last reported at 2014-Sep-22 05:14 UTC. Time now 2014-Sep-22 10:20 UTC.
Position N 37°41' E 003°01'.

Length 228 m; draft 11.8 m.

Type: Tanker. MMSI: 236612000.

Date/timePositionNaut miles runAvg speedWind from/ knotsBaromVisibWave heightAir tempDewpointWater temp
2014-Sep-22 05:14N 37°41' E 003°01'4013.1
2014-Sep-22 02:10N 37°44' E 003°52'5812.5
2014-Sep-21 21:32N 37°46' E 005°05'13312.8
2014-Sep-21 11:09N 37°52' E 007°53'912.4
2014-Sep-21 10:24N 37°53' E 008°05'1012.0
2014-Sep-21 09:33N 37°53' E 008°18'1212.3
2014-Sep-21 08:32N 37°54' E 008°34'1212.1
2014-Sep-21 07:33N 37°55' E 008°49'1211.9
2014-Sep-21 06:33N 37°54' E 009°04'1212.3
2014-Sep-21 05:33N 37°50' E 009°19'1212.2
2014-Sep-21 04:34N 37°46' E 009°33'1212.1
2014-Sep-21 03:34N 37°43' E 009°48'1211.8
2014-Sep-21 02:32N 37°40' E 010°02'1111.4
2014-Sep-21 01:33N 37°39' E 010°17'1211.6
2014-Sep-21 00:33N 37°36' E 010°31'1211.6
2014-Sep-20 23:32N 37°33' E 010°45'1111.5
2014-Sep-20 22:33N 37°30' E 010°59'1211.7
2014-Sep-20 21:34N 37°26' E 011°13'5312.3
2014-Sep-20 17:18N 37°02' E 012°11'912.4
2014-Sep-20 16:34N 36°58' E 012°22'1512.2
2014-Sep-20 15:21N 36°53' E 012°39'1012.6
2014-Sep-20 14:34N 36°50' E 012°51'1312.7
2014-Sep-20 13:33N 36°47' E 013°06'1212.0
2014-Sep-20 12:33N 36°43' E 013°21'1312.2
2014-Sep-20 11:32N 36°37' E 013°34'1211.9
2014-Sep-20 10:31N 36°33' E 013°48'1211.9
2014-Sep-20 09:33N 36°29' E 014°02'1212.0
2014-Sep-20 08:32N 36°24' E 014°16'1111.7
2014-Sep-20 07:33N 36°21' E 014°29'6412.1
2014-Sep-20 02:17N 36°06' E 015°47'912.4
2014-Sep-20 01:34N 36°04' E 015°58'  
2014-Sep-17 08:33N 34°21' E 032°20'1212.2
2014-Sep-17 07:34N 34°20' E 032°34'1212.0
2014-Sep-17 06:34N 34°21' E 032°49'1212.4
2014-Sep-17 05:33N 34°26' E 033°03'1211.6
2014-Sep-17 04:33N 34°29' E 033°16'2 1.8
2014-Sep-17 03:33N 34°30' E 033°18'10 8.1
2014-Sep-17 02:18N 34°32' E 033°30'11 3.6
2014-Sep-16 23:16N 34°33' E 033°43'14 0.9
2014-Sep-16 08:10N 34°30' E 033°26'2 3.7
2014-Sep-16 07:34N 34°28' E 033°25'5 5.0
2014-Sep-16 06:34N 34°24' E 033°22'4 0.5
2014-Sep-15 22:33N 34°23' E 033°18'1111.1
2014-Sep-15 21:33N 34°28' E 033°29'5 0.7
2014-Sep-15 13:31N 34°33' E 033°32'3 1.3
2014-Sep-15 11:13N 34°35' E 033°35'3 1.7
2014-Sep-15 09:30N 34°36' E 033°38'1 1.0
2014-Sep-15 08:33N 34°36' E 033°37'1 1.0
2014-Sep-15 07:33N 34°35' E 033°36'1 1.0
2014-Sep-15 06:22N 34°34' E 033°35'5 0.8
2014-Sep-15 00:33N 34°32' E 033°30'4 3.8
2014-Sep-14 23:32N 34°36' E 033°31'4 1.0
2014-Sep-14 19:32N 34°33' E 033°27'5 5.1
2014-Sep-14 18:33N 34°28' E 033°26'5 4.8
2014-Sep-14 17:32N 34°23' E 033°25'3 2.1
2014-Sep-14 16:17N 34°21' E 033°23'6 8.6
2014-Sep-14 15:33N 34°26' E 033°19'4 4.0
2014-Sep-14 14:33N 34°29' E 033°16'1211.7
2014-Sep-14 13:33N 34°25' E 033°02'1414.4
2014-Sep-14 12:33N 34°20' E 032°46'  

Dump ship's entire track history